METAR AND TAF INFORMATION
METAR FOR EYVI
ADDS - METARS form results

(2151 UTC 06 December 2019)
Data provider http://aviationweather.gov/metar/data/
 
METAR text: EYVI 062150Z 20009KT 7000 -RA OVC017 01/M01 Q1005 R19/2///95 NOSIG
Conditions at: EYVI (VILNIUS INTL , LT) observed 2150 UTC 06 December 2019
Temperature: 1.0°C (34°F)
Dewpoint: -1.0°C (30°F) [RH = 86%]
Pressure (altimeter): 29.68 inches Hg (1005.0 mb)
Winds: from the SSW (200 degrees) at 10 MPH (9 knots; 4.6 m/s)
Visibility: 4 miles ( 7 km)
Ceiling: 1700 feet AGL
Clouds: overcast cloud deck at 1700 feet AGL
Weather: -RA  (light rain)

METAR text: EYVI 062120Z 20008KT 9000 -RA OVC017 01/M02 Q1005 R19/2///95 NOSIG
Conditions at: EYVI (VILNIUS INTL , LT) observed 2120 UTC 06 December 2019
Temperature: 1.0°C (34°F)
Dewpoint: -2.0°C (28°F) [RH = 80%]
Pressure (altimeter): 29.68 inches Hg (1005.0 mb)
Winds: from the SSW (200 degrees) at 9 MPH (8 knots; 4.1 m/s)
Visibility: 6 miles ( 9 km)
Ceiling: 1700 feet AGL
Clouds: overcast cloud deck at 1700 feet AGL
Weather: -RA  (light rain)

Forecast for: EYVI (VILNIUS INTL , LT)
Text: TAF EYVI 061701Z 0618/0718 20013KT 5000 BR OVC015
Forecast period: 1800 UTC 06 December 2019 to 1800 UTC 07 December 2019
Forecast type: FROM: standard forecast or significant change
Winds: from the SSW (200 degrees) at 15 MPH (13 knots; 6.7 m/s)
Visibility: 3 miles (5 km)
Ceiling: 1500 feet AGL
Clouds: overcast cloud deck at 1500 feet AGL
Weather: BR  (mist)
Text: TEMPO 0618/0701 RA OVC009
Forecast period: 1800 UTC 06 December 2019 to 0100 UTC 07 December 2019
Forecast type: TEMPORARY: The following changes expected for less than half the time period
Visibility: missing
Ceiling: 900 feet AGL
Clouds: overcast cloud deck at 900 feet AGL
Weather: RA  (moderate rain)
Text: TEMPO 0701/0706 2000 RA BKN005
Forecast period: 0100 to 0600 UTC 07 December 2019
Forecast type: TEMPORARY: The following changes expected for less than half the time period
Visibility: 1.24 miles (2.00 km)
Ceiling: 500 feet AGL
Clouds: broken clouds at 500 feet AGL
Weather: RA  (moderate rain)
Text: TEMPO 0712/0718 1500 SNRA OVC003
Forecast period: 1200 to 1800 UTC 07 December 2019
Forecast type: TEMPORARY: The following changes expected for less than half the time period
Visibility: 0.93 miles (1.50 km)
Ceiling: 300 feet AGL
Clouds: overcast cloud deck at 300 feet AGL
Weather: SN RA  (moderate snow, moderate rain)

 AIRPORT MAP

 RUNWAY INFORMATION
Runway 02 Runway length 8251 ft Runway width 164 ft
Runway elevation 594 ft Runway displaced threshold 0 ft Runway heading 22
Runway 20 Runway length 8251 ft Runway width 164 ft
Runway elevation 646 ft Runway displaced threshold 0 ft Runway heading 202

 AIRPORT FREQUENCIES
Type APP Name APP Frequency 120.7 MHZ
Type ATIS Name ATIS Frequency 125.8 MHZ
Type TWR Name TWR Frequency 118.2 MHZ

 AIRPORT NEAR NAVIGATION AIDS
Type NDB Name Vilnius Frequency 385 KHZ
Type VOR-DME Name Vilnius Frequency 113800 KHZ



Powered by Virtual Airlines Manager [v2.6.2]